Time;durP1;ratioP1;P1;durP2;ratioP2;P2;SDS_P1;SDS_P2;PMS_P1;PMS_P2;Temp;Humidity;BMP_temperature;BMP_pressure;BME280_temperature;BME280_humidity;BME280_pressure;Samples;Min_cycle;Max_cycle;Signal;HPM_P1;HPM_P2
2021/09/27 00:00:36;;;;;;;;;9.75;9.50;;;;;23.67;57.76;100729.69;6195424;22;45210;-75
2021/09/27 00:03:02;;;;;;;;;7.00;6.25;;;;;23.58;58.52;100720.28;6221263;22;45233;-74
2021/09/27 00:05:27;;;;;;;;;7.50;6.25;;;;;23.67;58.14;100737.69;6170709;22;45359;-75
2021/09/27 00:07:53;;;;;;;;;6.00;5.75;;;;;23.66;58.43;100746.59;6221100;22;45237;-75
2021/09/27 00:10:22;;;;;;;;;6.25;5.00;;;;;23.65;58.52;100731.56;6220156;22;62593;-75
2021/09/27 00:12:48;;;;;;;;;9.00;8.00;;;;;23.64;58.74;100728.03;6247973;22;45208;-75
2021/09/27 00:15:25;;;;;;;;;7.50;7.50;;;;;23.65;58.21;100734.22;6246291;22;46266;-75
2021/09/27 00:17:50;;;;;;;;;9.50;9.00;;;;;23.65;58.14;100735.09;6247668;22;45713;-74
2021/09/27 00:20:15;;;;;;;;;8.50;8.00;;;;;23.64;58.43;100721.84;6248127;22;45382;-75
2021/09/27 00:22:42;;;;;;;;;11.75;9.50;;;;;23.64;58.30;100720.03;6195462;22;48155;-75
2021/09/27 00:25:08;;;;;;;;;6.50;6.50;;;;;23.60;58.77;100715.75;6196057;22;45263;-75
2021/09/27 00:27:34;;;;;;;;;11.25;11.25;;;;;23.58;58.43;100711.41;6195559;22;45765;-75
2021/09/27 00:30:00;;;;;;;;;9.75;9.75;;;;;23.55;58.30;100711.56;6195674;22;45366;-74
2021/09/27 00:32:26;;;;;;;;;9.25;8.25;;;;;23.51;58.63;100713.47;6248071;22;45095;-75
2021/09/27 00:34:51;;;;;;;;;8.00;6.00;;;;;23.57;58.48;100718.53;6195906;22;45214;-74
2021/09/27 00:37:17;;;;;;;;;8.00;7.00;;;;;23.57;58.86;100717.69;6195159;22;62019;-75
2021/09/27 00:39:42;;;;;;;;;8.25;8.25;;;;;23.59;59.00;100721.13;6246653;22;60613;-75
2021/09/27 00:42:07;;;;;;;;;7.50;7.50;;;;;23.57;58.68;100718.53;6195112;22;49084;-74
2021/09/27 00:44:33;;;;;;;;;7.75;7.75;;;;;23.57;58.34;100718.53;6195653;22;45419;-74
2021/09/27 00:46:58;;;;;;;;;7.25;7.25;;;;;23.57;58.87;100715.88;6194420;22;52746;-75
2021/09/27 00:49:23;;;;;;;;;8.75;6.00;;;;;23.56;58.85;100714.16;6220423;22;45126;-74
2021/09/27 00:51:49;;;;;;;;;10.00;8.00;;;;;23.56;58.73;100711.50;6195047;22;52051;-75
2021/09/27 00:54:19;;;;;;;;;10.75;9.00;;;;;23.56;58.60;100703.50;6195752;22;45169;-75
2021/09/27 00:56:54;;;;;;;;;8.00;8.00;;;;;23.58;58.94;100717.59;6170359;22;47220;-74
2021/09/27 00:59:20;;;;;;;;;10.50;9.50;;;;;23.58;58.82;100703.41;6196291;22;45494;-74
2021/09/27 01:01:46;;;;;;;;;8.00;8.00;;;;;23.57;58.27;100705.22;6195900;22;45208;-74
2021/09/27 01:04:11;;;;;;;;;10.00;9.25;;;;;23.49;58.93;100687.84;6219960;22;54842;-75
2021/09/27 01:06:52;;;;;;;;;8.00;7.25;;;;;23.57;58.46;100699.03;6194644;22;46987;-74
2021/09/27 01:09:23;;;;;;;;;7.25;7.25;;;;;23.56;58.84;100698.16;6247899;22;45430;-74
2021/09/27 01:12:23;;;;;;;;;9.00;8.75;;;;;23.53;58.10;100692.09;6195224;22;45209;-74
2021/09/27 01:15:29;;;;;;;;;8.25;8.00;;;;;23.51;58.41;100684.19;6220349;22;45815;-74
2021/09/27 01:18:16;;;;;;;;;8.00;8.00;;;;;23.46;58.72;100680.88;6220064;22;45400;-75
2021/09/27 01:21:09;;;;;;;;;9.00;9.00;;;;;23.46;58.88;100680.88;6223945;22;46144;-74
2021/09/27 01:23:53;;;;;;;;;7.50;7.50;;;;;23.42;59.00;100680.13;6247581;22;45227;-74
2021/09/27 01:26:31;;;;;;;;;9.75;9.75;;;;;23.39;59.00;100674.94;6247805;22;45182;-74
2021/09/27 01:29:02;;;;;;;;;11.00;11.00;;;;;23.39;59.31;100679.41;6222124;22;45623;-74
2021/09/27 01:32:05;;;;;;;;;9.25;7.50;;;;;23.42;59.29;100687.25;6220897;22;45435;-74
2021/09/27 01:34:44;;;;;;;;;10.50;9.50;;;;;23.41;59.55;100689.06;6249092;22;45354;-75
2021/09/27 01:37:09;;;;;;;;;8.25;7.50;;;;;23.44;58.93;100685.38;6221217;22;45914;-74
2021/09/27 01:39:42;;;;;;;;;8.25;8.25;;;;;23.44;59.81;100677.38;6215920;22;48162;-74
2021/09/27 01:42:18;;;;;;;;;7.50;7.00;;;;;23.44;58.98;100671.19;6216576;22;45207;-75
2021/09/27 01:44:51;;;;;;;;;10.00;10.00;;;;;23.40;59.05;100662.50;6216375;22;45340;-75
2021/09/27 01:47:20;;;;;;;;;10.25;8.00;;;;;23.47;58.96;100666.63;6191148;22;45462;-74
2021/09/27 01:49:51;;;;;;;;;9.25;8.50;;;;;23.47;59.03;100663.94;6191567;22;45253;-74
2021/09/27 01:52:23;;;;;;;;;11.25;9.00;;;;;23.47;58.91;100663.94;6192147;22;45403;-74
2021/09/27 01:54:54;;;;;;;;;7.25;7.00;;;;;23.46;58.24;100667.56;6216964;22;45223;-74
2021/09/27 01:57:27;;;;;;;;;5.50;5.50;;;;;23.45;59.10;100670.25;6192410;22;45316;-74
2021/09/27 02:00:09;;;;;;;;;7.50;7.50;;;;;23.45;59.31;100656.94;6216022;22;48082;-75
2021/09/27 02:02:40;;;;;;;;;8.50;7.25;;;;;23.47;59.16;100649.78;6192216;22;45298;-74
2021/09/27 02:05:15;;;;;;;;;11.50;9.25;;;;;23.47;58.95;100642.66;6217805;22;45182;-74
2021/09/27 02:07:50;;;;;;;;;9.50;9.00;;;;;23.46;58.79;100643.59;6191765;22;45359;-75
2021/09/27 02:10:20;;;;;;;;;9.75;8.75;;;;;23.42;59.16;100632.19;6191110;22;48719;-74
2021/09/27 02:12:48;;;;;;;;;9.00;8.75;;;;;23.45;58.80;100633.84;6191372;22;45379;-74
2021/09/27 02:15:56;;;;;;;;;9.25;8.75;;;;;23.43;58.82;100641.03;6191777;22;45340;-74
2021/09/27 02:18:27;;;;;;;;;7.00;7.00;;;;;23.41;58.86;100640.25;6178542;22;45387;-74
2021/09/27 02:20:56;;;;;;;;;10.75;8.50;;;;;23.41;58.80;100629.59;6191253;22;47081;-74
2021/09/27 02:23:37;;;;;;;;;8.00;7.75;;;;;23.35;58.98;100625.41;6166120;22;45241;-74
2021/09/27 02:26:03;;;;;;;;;9.25;8.00;;;;;23.35;59.35;100635.19;6191396;22;45256;-74
2021/09/27 02:28:29;;;;;;;;;10.50;9.00;;;;;23.39;58.88;100647.44;6190381;22;55888;-74
2021/09/27 02:30:55;;;;;;;;;5.75;5.75;;;;;23.39;58.80;100642.13;6216605;22;46072;-74
2021/09/27 02:33:42;;;;;;;;;6.75;6.75;;;;;23.41;59.30;100646.44;6215605;22;45245;-75
2021/09/27 02:36:17;;;;;;;;;10.50;9.50;;;;;23.39;58.73;100647.44;6216045;22;45192;-74
2021/09/27 02:38:54;;;;;;;;;9.00;8.25;;;;;23.37;58.80;100644.00;6192473;22;45185;-74
2021/09/27 02:41:22;;;;;;;;;8.50;8.50;;;;;23.34;58.54;100638.78;6216165;22;46299;-74
2021/09/27 02:43:47;;;;;;;;;8.00;8.00;;;;;23.31;59.24;100645.13;6215889;22;45361;-74
2021/09/27 02:46:13;;;;;;;;;9.25;8.00;;;;;23.32;58.97;100636.22;6190369;22;45461;-74
2021/09/27 02:48:40;;;;;;;;;8.75;8.75;;;;;23.36;58.88;100642.25;6191201;22;45244;-75
2021/09/27 02:51:07;;;;;;;;;5.50;5.50;;;;;23.38;59.09;100638.59;6191255;22;47207;-74
2021/09/27 02:53:33;;;;;;;;;8.00;8.00;;;;;23.39;58.57;100636.78;6191006;22;45222;-74
2021/09/27 02:56:20;;;;;;;;;8.75;7.50;;;;;23.38;58.58;100641.25;6216709;22;45130;-74
2021/09/27 02:58:48;;;;;;;;;9.75;8.00;;;;;23.37;58.33;100638.69;6215828;22;45516;-74
2021/09/27 03:01:13;;;;;;;;;11.75;9.50;;;;;23.35;58.54;100641.38;6217704;22;46419;-74
2021/09/27 03:04:00;;;;;;;;;8.75;8.00;;;;;23.36;58.57;100636.91;6217595;22;45204;-74
2021/09/27 03:06:41;;;;;;;;;10.25;9.25;;;;;23.36;58.61;100624.47;6216273;22;45233;-74
2021/09/27 03:09:13;;;;;;;;;10.00;9.00;;;;;23.37;58.57;100617.38;6215993;22;45363;-74
2021/09/27 03:12:10;;;;;;;;;11.75;10.50;;;;;23.36;58.14;100640.44;6216105;22;47206;-74
2021/09/27 03:15:01;;;;;;;;;11.25;9.25;;;;;23.35;58.97;100640.53;6215771;22;45350;-74
2021/09/27 03:17:45;;;;;;;;;8.75;8.25;;;;;23.33;58.37;100627.28;6190068;22;45259;-74
2021/09/27 03:20:34;;;;;;;;;11.00;10.00;;;;;23.31;58.71;100628.28;6190957;22;45932;-75
2021/09/27 03:23:17;;;;;;;;;7.75;7.25;;;;;23.26;58.57;100623.16;6216375;22;45216;-74
2021/09/27 03:26:10;;;;;;;;;12.00;11.00;;;;;23.24;59.25;100632.16;6190398;22;45862;-74
2021/09/27 03:29:03;;;;;;;;;9.50;8.75;;;;;23.23;58.78;100628.63;6216128;22;45204;-74
2021/09/27 03:31:37;;;;;;;;;9.75;7.25;;;;;23.21;58.50;100637.63;6193586;22;45391;-74
2021/09/27 03:34:17;;;;;;;;;6.00;6.00;;;;;23.19;59.01;100629.69;6216943;22;48342;-75
2021/09/27 03:37:11;;;;;;;;;10.00;8.25;;;;;23.19;59.24;100640.34;6215269;22;45273;-74
2021/09/27 03:39:41;;;;;;;;;11.00;10.00;;;;;23.18;59.08;100632.41;6235800;22;45184;-74
2021/09/27 03:42:10;;;;;;;;;11.50;9.00;;;;;23.16;58.92;100636.97;6221136;22;45466;-74
2021/09/27 03:44:55;;;;;;;;;9.00;7.25;;;;;23.16;58.81;100648.47;6196029;22;46685;-75
2021/09/27 03:47:27;;;;;;;;;7.25;7.00;;;;;23.18;59.02;100651.91;6195406;22;45198;-74
2021/09/27 03:50:08;;;;;;;;;7.75;7.50;;;;;23.22;59.36;100655.34;6196841;22;45280;-74
2021/09/27 03:52:39;;;;;;;;;10.25;8.00;;;;;23.23;59.25;100644.59;6223462;22;45189;-74
2021/09/27 03:55:06;;;;;;;;;8.75;8.25;;;;;23.23;58.99;100636.63;6221260;22;46229;-74
2021/09/27 03:57:36;;;;;;;;;9.50;9.25;;;;;23.25;59.32;100647.19;6220712;22;45276;-74
2021/09/27 04:00:05;;;;;;;;;10.00;8.75;;;;;23.23;59.34;100649.06;6196654;22;45382;-74
2021/09/27 04:03:08;;;;;;;;;8.00;8.00;;;;;23.28;58.89;100655.03;6195316;22;45750;-74
2021/09/27 04:06:00;;;;;;;;;12.50;11.75;;;;;23.30;59.01;100646.06;6168723;22;45577;-74
2021/09/27 04:08:34;;;;;;;;;8.00;7.00;;;;;23.32;58.87;100656.66;6220503;22;45351;-74
2021/09/27 04:11:24;;;;;;;;;10.75;8.00;;;;;23.33;58.82;100647.72;6222552;22;45216;-74
2021/09/27 04:14:17;;;;;;;;;7.75;7.75;;;;;23.33;58.32;100634.41;6247979;22;45352;-75
2021/09/27 04:16:59;;;;;;;;;6.50;6.50;;;;;23.32;58.26;100638.88;6247840;22;45336;-75
2021/09/27 04:19:43;;;;;;;;;12.50;9.00;;;;;23.32;58.80;100646.00;6196412;22;45166;-74
2021/09/27 04:22:12;;;;;;;;;8.75;7.75;;;;;23.30;58.51;100645.22;6195150;22;45187;-74
2021/09/27 04:24:51;;;;;;;;;9.00;7.75;;;;;23.30;58.14;100646.06;6220482;22;45446;-74
2021/09/27 04:27:29;;;;;;;;;14.00;9.00;;;;;23.28;58.65;100639.94;6223137;22;45198;-75
2021/09/27 04:30:20;;;;;;;;;7.25;7.25;;;;;23.27;58.13;100632.88;6246275;22;45975;-74
2021/09/27 04:33:02;;;;;;;;;10.25;8.50;;;;;23.26;58.00;100635.59;6220776;22;45431;-74
2021/09/27 04:36:10;;;;;;;;;7.00;6.25;;;;;23.27;58.44;100626.69;6221870;22;45773;-74
2021/09/27 04:38:36;;;;;;;;;9.00;6.00;;;;;23.22;58.05;100632.22;6198479;22;47205;-74
2021/09/27 04:41:29;;;;;;;;;8.50;8.50;;;;;23.24;58.55;100629.50;6195666;22;45139;-74
2021/09/27 04:44:02;;;;;;;;;6.75;6.75;;;;;23.26;58.10;100631.16;6199412;22;45237;-74
2021/09/27 04:46:33;;;;;;;;;1.75;1.00;;;;;23.25;58.33;100629.41;6220871;22;45277;-74
2021/09/27 04:49:08;;;;;;;;;6.25;6.25;;;;;23.23;57.91;100612.66;6245580;22;47265;-74
2021/09/27 04:51:42;;;;;;;;;8.00;6.00;;;;;23.19;58.23;100615.50;6221636;22;45244;-74
2021/09/27 04:54:41;;;;;;;;;7.00;7.00;;;;;23.20;58.25;100615.47;6246127;22;45244;-72
2021/09/27 04:57:26;;;;;;;;;3.00;3.00;;;;;23.26;60.59;100614.31;6220263;22;45416;-74
2021/09/27 05:00:13;;;;;;;;;7.75;6.75;;;;;23.31;60.50;100599.84;6220568;22;45957;-72
2021/09/27 05:02:45;;;;;;;;;10.50;9.50;;;;;23.51;59.55;100609.59;6219301;22;45326;-71
2021/09/27 05:05:20;;;;;;;;;10.75;8.75;;;;;23.58;60.25;100605.72;6220311;22;45320;-72
2021/09/27 05:07:57;;;;;;;;;9.25;9.00;;;;;23.71;60.49;100599.81;6221675;22;45335;-71
2021/09/27 05:11:07;;;;;;;;;9.75;8.75;;;;;23.78;60.04;100606.59;6247438;22;45323;-73
2021/09/27 05:13:42;;;;;;;;;8.75;8.00;;;;;23.80;59.16;100600.25;6224786;22;45235;-72
2021/09/27 05:16:21;;;;;;;;;8.00;8.00;;;;;23.80;59.26;100589.59;6245830;22;45177;-72
2021/09/27 05:19:24;;;;;;;;;13.75;9.25;;;;;23.77;58.79;100583.56;6247458;22;45369;-72
2021/09/27 05:22:25;;;;;;;;;5.25;5.25;;;;;23.67;58.53;100581.31;6223362;22;46346;-72
2021/09/27 05:24:58;;;;;;;;;9.50;8.25;;;;;23.64;57.58;100592.13;6094496;23;45346;-72
2021/09/27 05:28:05;;;;;;;;;10.75;8.75;;;;;23.55;57.84;100573.03;6196974;22;45268;-73
2021/09/27 05:30:51;;;;;;;;;9.00;6.50;;;;;23.47;57.48;100585.84;6223958;22;45282;-72
2021/09/27 05:33:54;;;;;;;;;6.25;6.25;;;;;23.45;57.87;100593.00;6244930;22;47174;-73
2021/09/27 05:36:33;;;;;;;;;9.00;6.75;;;;;23.38;57.97;100593.31;6247424;22;45319;-71
2021/09/27 05:39:14;;;;;;;;;11.50;8.00;;;;;23.34;57.92;100597.03;6171311;22;45412;-72
2021/09/27 05:41:45;;;;;;;;;8.00;8.00;;;;;23.37;60.06;100609.38;6245126;22;45444;-71
2021/09/27 05:44:13;;;;;;;;;7.00;7.00;;;;;23.38;59.32;100603.97;6246994;22;45455;-70
2021/09/27 05:47:15;;;;;;;;;7.50;7.00;;;;;23.39;58.98;100572.88;6246975;22;45298;-71
2021/09/27 05:49:43;;;;;;;;;7.00;6.50;;;;;23.39;58.83;100587.06;6194867;22;45302;-71
2021/09/27 05:52:14;;;;;;;;;9.25;8.25;;;;;23.41;58.23;100579.00;6245147;22;45265;-71
2021/09/27 05:54:54;;;;;;;;;8.25;6.75;;;;;23.38;58.62;100569.34;6219926;22;48585;-71
2021/09/27 05:57:41;;;;;;;;;5.75;5.00;;;;;23.40;58.51;100585.25;6222223;22;46001;-70
2021/09/27 06:00:17;;;;;;;;;7.00;7.00;;;;;23.43;59.17;100577.09;6247524;22;45218;-71
2021/09/27 06:03:33;;;;;;;;;6.25;5.00;;;;;23.43;58.21;100569.13;6193996;22;45472;-71
2021/09/27 06:06:11;;;;;;;;;7.25;7.25;;;;;23.45;57.36;100577.03;6166902;22;47464;-71
2021/09/27 06:08:50;;;;;;;;;7.75;7.25;;;;;23.37;58.04;100583.59;6220086;22;45284;-72
2021/09/27 06:11:54;;;;;;;;;7.00;7.00;;;;;23.32;57.25;100574.94;6220133;22;45269;-71
2021/09/27 06:14:19;;;;;;;;;6.00;6.00;;;;;23.24;57.38;100590.41;6245830;22;45814;-71
2021/09/27 06:17:49;;;;;;;;;6.75;6.25;;;;;23.20;57.49;100593.31;6194048;22;71198;-70
2021/09/27 06:20:18;;;;;;;;;6.00;6.00;;;;;23.19;57.13;100612.84;6071340;23;45606;-71
2021/09/27 06:23:02;;;;;;;;;7.75;6.75;;;;;23.18;57.66;100624.44;6047564;23;45394;-70
2021/09/27 06:25:32;;;;;;;;;8.00;6.25;;;;;23.17;57.07;100609.41;6187704;22;45442;-70
2021/09/27 06:28:15;;;;;;;;;7.75;6.50;;;;;23.13;56.79;100617.53;6220930;22;48255;-71
2021/09/27 06:31:03;;;;;;;;;10.25;7.25;;;;;23.09;57.41;100607.94;6220645;22;45247;-70
2021/09/27 06:33:50;;;;;;;;;7.00;7.00;;;;;23.11;57.65;100602.56;6196729;22;45336;-70
2021/09/27 06:36:20;;;;;;;;;10.00;8.00;;;;;23.10;57.03;100609.66;6221189;22;45386;-70
2021/09/27 06:38:45;;;;;;;;;8.75;7.25;;;;;23.04;57.02;100599.31;6196020;22;45813;-70
2021/09/27 06:41:16;;;;;;;;;6.50;6.50;;;;;23.04;57.95;100590.47;6195683;22;52084;-69
2021/09/27 06:43:41;;;;;;;;;6.75;6.25;;;;;23.10;57.94;100601.69;6196207;22;45403;-70
2021/09/27 06:46:06;;;;;;;;;8.25;8.00;;;;;23.19;58.04;100608.38;6195023;22;60646;-70
2021/09/27 06:48:32;;;;;;;;;8.50;5.75;;;;;23.29;58.49;100611.53;6195628;22;61878;-71
2021/09/27 06:50:58;;;;;;;;;8.00;6.00;;;;;23.36;58.59;100618.28;6196033;22;45758;-70
2021/09/27 06:53:25;;;;;;;;;6.25;6.00;;;;;23.42;58.13;100616.19;6170937;22;45368;-69
2021/09/27 06:55:51;;;;;;;;;6.00;6.00;;;;;23.50;58.32;100607.84;6248370;22;45440;-68
2021/09/27 06:58:16;;;;;;;;;6.25;5.25;;;;;23.55;57.86;100589.88;6196322;22;45159;-69
2021/09/27 07:00:42;;;;;;;;;7.00;6.00;;;;;23.62;57.59;100585.13;6221324;22;45204;-69
2021/09/27 07:03:07;;;;;;;;;8.00;6.50;;;;;23.65;57.85;100591.19;6221208;22;45266;-69
2021/09/27 07:05:33;;;;;;;;;7.00;6.00;;;;;23.68;57.36;100585.72;6169851;22;56737;-69
2021/09/27 07:08:00;;;;;;;;;5.25;4.25;;;;;23.72;58.09;100593.56;6220466;22;62766;-71
2021/09/27 07:10:26;;;;;;;;;7.00;5.50;;;;;23.76;57.30;100600.47;6171739;22;45676;-70
2021/09/27 07:12:51;;;;;;;;;6.00;6.00;;;;;23.79;57.57;100606.50;6196418;22;45411;-71
2021/09/27 07:15:17;;;;;;;;;7.00;4.75;;;;;23.81;57.29;100602.00;6220188;22;63339;-71
2021/09/27 07:17:43;;;;;;;;;6.25;5.00;;;;;23.81;57.78;100606.47;6195650;22;45261;-71
2021/09/27 07:20:12;;;;;;;;;5.00;5.00;;;;;23.83;57.43;100609.91;6195477;22;57333;-71
2021/09/27 07:22:37;;;;;;;;;5.25;4.00;;;;;23.83;57.76;100601.91;6221191;22;45158;-71
2021/09/27 07:25:04;;;;;;;;;7.75;6.00;;;;;23.80;57.79;100599.38;6195459;22;45170;-71
2021/09/27 07:27:29;;;;;;;;;6.25;6.25;;;;;23.83;58.07;100605.44;6196254;22;46068;-71
2021/09/27 07:29:54;;;;;;;;;5.50;5.50;;;;;23.82;57.83;100597.53;6195669;22;46066;-71
2021/09/27 07:32:20;;;;;;;;;7.00;6.25;;;;;23.85;57.76;100594.72;6195007;22;53625;-72
2021/09/27 07:34:45;;;;;;;;;6.00;6.00;;;;;23.81;56.86;100602.00;6221055;22;45508;-72
2021/09/27 07:37:11;;;;;;;;;7.00;7.00;;;;;23.69;57.45;100590.09;6220979;22;58081;-72
2021/09/27 07:39:36;;;;;;;;;5.00;5.00;;;;;23.65;57.21;100601.84;6220957;22;45272;-72
2021/09/27 07:42:03;;;;;;;;;11.00;8.00;;;;;23.58;57.24;100603.03;6193675;22;45908;-71
2021/09/27 07:44:28;;;;;;;;;7.00;6.00;;;;;23.53;57.43;100605.03;6188046;22;45747;-71
2021/09/27 07:46:53;;;;;;;;;6.00;6.00;;;;;23.48;57.44;100607.06;6194806;22;47160;-72
2021/09/27 07:49:19;;;;;;;;;6.25;5.50;;;;;23.44;57.51;100612.59;6218382;22;60952;-72
2021/09/27 07:51:47;;;;;;;;;8.00;6.25;;;;;23.35;57.14;100587.25;6194927;22;51007;-74
2021/09/27 07:54:13;;;;;;;;;7.00;6.00;;;;;23.29;57.48;100604.41;6196324;22;45278;-72
2021/09/27 07:56:39;;;;;;;;;5.75;5.75;;;;;23.26;58.21;100604.50;6195737;22;45151;-72
2021/09/27 07:59:06;;;;;;;;;6.00;6.00;;;;;23.25;58.29;100599.25;6247426;22;51431;-70
2021/09/27 08:01:32;;;;;;;;;6.50;6.00;;;;;23.23;58.03;100603.81;6221072;22;45321;-71
2021/09/27 08:03:58;;;;;;;;;8.00;7.00;;;;;23.24;58.33;100603.72;6220418;22;45410;-70
2021/09/27 08:06:23;;;;;;;;;5.50;5.50;;;;;23.21;58.62;100603.00;6221003;22;45902;-72
2021/09/27 08:08:49;;;;;;;;;7.00;7.00;;;;;23.21;58.26;100600.34;6220392;22;55414;-72
2021/09/27 08:11:14;;;;;;;;;7.50;6.50;;;;;23.20;58.49;100603.94;6221210;22;45377;-72
2021/09/27 08:13:40;;;;;;;;;7.00;6.00;;;;;23.17;58.47;100599.59;6221084;22;45256;-72
2021/09/27 08:16:05;;;;;;;;;7.50;5.00;;;;;23.18;58.30;100598.66;6246314;22;46451;-72
2021/09/27 08:18:30;;;;;;;;;7.25;6.25;;;;;23.21;58.37;100619.84;6246343;22;45456;-72
2021/09/27 08:20:58;;;;;;;;;5.50;5.50;;;;;23.20;58.57;100617.28;6248504;22;45881;-73
2021/09/27 08:23:24;;;;;;;;;7.00;6.25;;;;;23.16;58.55;100621.84;6215139;22;45181;-73
2021/09/27 08:25:50;;;;;;;;;10.25;8.25;;;;;23.16;58.83;100607.66;6219692;22;46844;-73
2021/09/27 08:28:16;;;;;;;;;6.50;6.50;;;;;23.10;58.60;100592.81;6247748;22;45336;-73
2021/09/27 08:30:47;;;;;;;;;7.00;7.00;;;;;23.14;58.02;100599.75;6247750;22;45295;-73
2021/09/27 08:33:13;;;;;;;;;7.00;7.00;;;;;23.09;58.93;100599.09;6219893;22;45750;-73
2021/09/27 08:35:38;;;;;;;;;7.25;6.50;;;;;23.14;58.20;100605.09;6245819;22;47245;-73
2021/09/27 08:38:05;;;;;;;;;9.00;7.75;;;;;23.07;57.88;100585.00;6220002;22;55127;-73
2021/09/27 08:40:45;;;;;;;;;10.00;8.00;;;;;23.09;58.54;100594.63;6194846;22;45309;-73
2021/09/27 08:43:32;;;;;;;;;8.00;7.75;;;;;23.09;58.64;100594.63;6221904;22;45375;-73
2021/09/27 08:46:02;;;;;;;;;8.25;7.25;;;;;23.08;58.32;100587.56;6197437;22;45200;-73
2021/09/27 08:48:38;;;;;;;;;8.00;7.75;;;;;23.06;58.78;100593.91;6196234;22;45364;-73
2021/09/27 08:51:04;;;;;;;;;9.00;7.75;;;;;23.05;58.50;100600.16;6195857;22;45416;-73
2021/09/27 08:53:38;;;;;;;;;10.50;9.50;;;;;23.06;59.14;100592.13;6169917;22;49738;-73
2021/09/27 08:56:22;;;;;;;;;9.00;8.00;;;;;23.05;58.33;100586.88;6196029;22;45369;-72
2021/09/27 08:58:58;;;;;;;;;9.50;8.00;;;;;23.00;58.66;100592.38;6247816;22;45315;-73
2021/09/27 09:01:44;;;;;;;;;9.00;8.00;;;;;23.00;58.32;100595.03;6196578;22;45336;-72
2021/09/27 09:04:37;;;;;;;;;10.75;8.75;;;;;22.93;58.49;100580.28;6193958;22;46080;-72
2021/09/27 09:07:07;;;;;;;;;12.75;9.25;;;;;22.93;58.67;100574.09;6218622;22;46364;-73
2021/09/27 09:09:38;;;;;;;;;9.25;8.75;;;;;22.93;58.62;100580.28;6195829;22;45234;-73
2021/09/27 09:12:35;;;;;;;;;8.00;6.50;;;;;22.92;59.05;100578.53;6220751;22;45378;-73
2021/09/27 09:15:24;;;;;;;;;10.50;8.75;;;;;22.95;59.44;100598.84;6224333;22;45598;-71
2021/09/27 09:18:11;;;;;;;;;12.75;8.00;;;;;22.96;59.34;100582.81;6220271;22;45217;-73
2021/09/27 09:20:46;;;;;;;;;12.25;9.50;;;;;22.98;59.00;100577.41;6220171;22;45192;-73
2021/09/27 09:23:16;;;;;;;;;11.50;8.25;;;;;23.00;59.67;100594.19;6195052;22;45384;-73
2021/09/27 09:25:41;;;;;;;;;9.00;8.50;;;;;23.01;59.01;100598.56;6195541;22;45269;-73
2021/09/27 09:28:07;;;;;;;;;11.75;9.75;;;;;23.02;59.28;100573.66;6219587;22;66764;-73
2021/09/27 09:30:42;;;;;;;;;9.00;8.00;;;;;23.01;59.02;100578.13;6195075;22;45234;-73
2021/09/27 09:33:07;;;;;;;;;10.75;7.00;;;;;23.00;58.66;100568.41;6195036;22;45279;-73
2021/09/27 09:35:33;;;;;;;;;5.00;5.00;;;;;23.05;59.08;100570.88;6194285;22;65721;-73
2021/09/27 09:38:07;;;;;;;;;9.00;8.00;;;;;23.05;59.16;100571.75;6195218;22;45234;-72
2021/09/27 09:40:53;;;;;;;;;10.75;8.00;;;;;23.05;59.52;100577.06;6195098;22;45184;-72
2021/09/27 09:43:27;;;;;;;;;10.50;10.00;;;;;23.09;59.27;100583.97;6194925;22;45201;-73
2021/09/27 09:46:03;;;;;;;;;9.00;7.00;;;;;23.06;59.44;100577.94;6196670;22;45438;-76
2021/09/27 09:48:28;;;;;;;;;12.00;9.00;;;;;23.08;59.72;100581.38;6220912;22;45392;-74
2021/09/27 09:51:17;;;;;;;;;8.75;7.75;;;;;23.12;59.38;100586.53;6248782;22;45154;-74
2021/09/27 09:53:42;;;;;;;;;8.25;8.25;;;;;23.12;60.08;100591.84;6226414;22;45248;-74
2021/09/27 09:56:15;;;;;;;;;10.00;9.25;;;;;23.13;61.28;100593.56;6248950;22;45462;-72
2021/09/27 09:58:44;;;;;;;;;10.75;10.00;;;;;23.16;62.50;100591.69;6222436;22;46146;-73
2021/09/27 10:01:18;;;;;;;;;9.50;8.25;;;;;23.18;62.54;100600.47;6221003;22;45225;-76
2021/09/27 10:03:46;;;;;;;;;8.25;7.00;;;;;23.22;64.06;100604.75;6248580;22;45319;-75
2021/09/27 10:06:16;;;;;;;;;12.75;9.75;;;;;23.26;63.88;100591.19;6221315;22;45269;-72
2021/09/27 10:08:53;;;;;;;;;9.75;8.00;;;;;23.26;61.00;100593.88;6195706;22;48019;-72
2021/09/27 10:11:35;;;;;;;;;8.00;8.00;;;;;23.27;61.10;100592.06;6196383;22;45340;-71
2021/09/27 10:14:19;;;;;;;;;7.75;6.75;;;;;23.27;61.38;100595.59;6221425;22;45225;-71
2021/09/27 10:16:50;;;;;;;;;8.50;7.00;;;;;23.29;60.72;100603.53;6196537;22;45203;-71
2021/09/27 10:19:29;;;;;;;;;6.00;6.00;;;;;23.32;59.64;100603.38;6197217;22;45390;-71
2021/09/27 10:22:06;;;;;;;;;6.25;6.00;;;;;23.28;59.36;100591.13;6221292;22;45162;-71
2021/09/27 10:24:40;;;;;;;;;6.50;6.50;;;;;23.22;59.63;100589.63;6246586;22;45292;-71
2021/09/27 10:27:41;;;;;;;;;5.50;4.50;;;;;23.20;59.72;100582.66;6196554;22;45260;-71
2021/09/27 10:30:12;;;;;;;;;5.50;4.25;;;;;23.18;59.40;100589.81;6211927;22;47318;-71
2021/09/27 10:32:44;;;;;;;;;6.00;6.00;;;;;23.17;59.96;100599.59;6195715;22;45311;-71
2021/09/27 10:35:19;;;;;;;;;7.25;6.00;;;;;23.19;59.32;100599.53;6195765;22;45198;-71
2021/09/27 10:37:44;;;;;;;;;7.25;7.25;;;;;23.18;59.30;100600.47;6221045;22;45203;-71
2021/09/27 10:40:11;;;;;;;;;4.50;4.50;;;;;23.18;59.68;100600.47;6220949;22;46134;-71
2021/09/27 10:42:43;;;;;;;;;9.25;5.25;;;;;23.18;59.84;100606.66;6195614;22;45371;-71
2021/09/27 10:45:08;;;;;;;;;6.75;6.75;;;;;23.20;60.01;100606.63;6196095;22;45135;-71
2021/09/27 10:47:35;;;;;;;;;9.00;5.00;;;;;23.20;59.75;100607.47;6194851;22;45270;-69
2021/09/27 10:50:10;;;;;;;;;7.00;7.00;;;;;23.17;59.80;100607.59;6195692;22;47387;-70
2021/09/27 10:52:42;;;;;;;;;5.50;5.50;;;;;23.19;60.55;100608.38;6220058;22;45295;-68
2021/09/27 10:55:26;;;;;;;;;7.75;6.75;;;;;23.19;59.93;100624.34;6195962;22;45219;-71
2021/09/27 10:58:06;;;;;;;;;6.25;6.00;;;;;23.18;60.47;100609.31;6221486;22;45383;-71
2021/09/27 11:00:46;;;;;;;;;6.50;5.50;;;;;23.20;60.18;100612.81;6196498;22;45634;-71
2021/09/27 11:03:50;;;;;;;;;6.00;6.00;;;;;23.21;60.09;100609.22;6220576;22;45828;-71
2021/09/27 11:06:45;;;;;;;;;8.00;5.00;;;;;23.18;59.86;100624.44;6144278;22;45558;-72
2021/09/27 11:09:11;;;;;;;;;7.25;7.00;;;;;23.13;60.47;100619.34;6230658;22;45469;-72
2021/09/27 11:11:46;;;;;;;;;8.25;8.25;;;;;23.05;61.27;100613.47;6221183;22;45621;-72
2021/09/27 11:14:38;;;;;;;;;12.75;12.50;;;;;23.01;61.03;100618.06;6197479;22;45295;-71
2021/09/27 11:17:06;;;;;;;;;17.50;15.75;;;;;22.97;61.82;100618.28;6200274;22;45305;-72
2021/09/27 11:19:37;;;;;;;;;20.75;17.00;;;;;22.97;62.08;100619.13;6220377;22;45459;-71
2021/09/27 11:22:43;;;;;;;;;16.50;15.00;;;;;22.98;62.11;100626.19;6248022;22;45365;-72
2021/09/27 11:25:33;;;;;;;;;18.00;12.75;;;;;23.01;62.32;100630.50;6218698;22;45433;-71
2021/09/27 11:28:11;;;;;;;;;11.25;11.25;;;;;23.05;62.45;100659.59;6200363;22;45189;-73
2021/09/27 11:30:40;;;;;;;;;8.00;7.00;;;;;23.05;61.77;100743.91;6220571;22;45418;-72
2021/09/27 11:33:32;;;;;;;;;5.00;5.00;;;;;23.05;60.89;100744.78;6195311;22;48455;-73
2021/09/27 11:36:03;;;;;;;;;12.25;11.00;;;;;23.03;61.63;100727.16;6224122;22;45260;-73
2021/09/27 11:38:38;;;;;;;;;5.00;5.00;;;;;23.06;61.91;100743.84;6195798;22;45422;-74
2021/09/27 11:41:10;;;;;;;;;3.25;3.25;;;;;23.09;60.67;100746.38;6170757;22;45423;-74
2021/09/27 11:43:36;;;;;;;;;8.25;5.25;;;;;23.12;60.45;100751.59;6247794;22;45246;-73
2021/09/27 11:46:07;;;;;;;;;4.00;3.00;;;;;23.12;59.22;100759.56;6220561;22;45125;-74
2021/09/27 11:48:46;;;;;;;;;2.50;2.50;;;;;23.12;58.58;100758.72;6248260;22;45326;-74
2021/09/27 11:51:20;;;;;;;;;3.00;2.00;;;;;23.09;58.60;100757.03;6197357;22;45473;-76
2021/09/27 11:54:10;;;;;;;;;3.00;2.00;;;;;23.11;59.58;100759.66;6196962;22;45394;-77
2021/09/27 11:56:46;;;;;;;;;4.00;3.00;;;;;23.05;58.90;100751.91;6220842;22;45610;-75
2021/09/27 11:59:16;;;;;;;;;3.00;3.00;;;;;23.06;58.58;100765.16;6221578;22;45438;-74